.
WxDataArchive / Data Records for 2010-08-01
2010-07-31 August 2010 2010-08-02

Data Records for Sunday, 01 August 2010

Time	Temp	Chill	HIndex	Humid	Dewpt	 Wind 	HiWind	WindDir	Rain 	Barom 
-----	----	-----	------	-----	-----	------	------	-------	-----	----- 
00:00	65.2	65.2	65.2	91	62.5	0	0	---	0.00	29.880 
00:05	65.2	65.2	65.2	91	62.5	0	0	---	0.00	29.880 
00:10	65.0	65.0	65.0	91	62.3	0	0	---	0.00	29.880 
00:15	65.0	65.0	65.0	92	62.6	0	0	---	0.00	29.888 
00:20	65.0	65.0	65.0	92	62.6	0	0	---	0.00	29.888 
00:25	65.0	65.0	65.0	92	62.6	0	0	---	0.00	29.888 
00:30	64.8	64.8	64.8	92	62.4	0	0	---	0.00	29.891 
00:35	64.8	64.8	64.8	92	62.4	0	0	---	0.00	29.891 
00:40	64.7	64.7	64.7	92	62.3	0	0	---	0.00	29.891 
00:45	64.5	64.5	64.5	92	62.1	0	0	---	0.00	29.896 
00:50	64.5	64.5	64.5	92	62.1	0	0	---	0.00	29.896 
00:55	64.3	64.3	64.3	92	61.9	0	0	---	0.00	29.896 
01:00	64.3	64.3	64.3	92	61.9	0	0	---	0.00	29.898 
01:05	64.2	64.2	64.2	92	61.8	0	0	---	0.00	29.898 
01:10	64.0	64.0	64.0	92	61.6	0	0	---	0.00	29.898 
01:15	64.0	64.0	64.0	93	61.9	0	0	---	0.00	29.894 
01:20	63.9	63.9	63.9	93	61.8	0	0	---	0.00	29.894 
01:25	63.7	63.7	63.7	93	61.6	0	0	---	0.00	29.894 
01:30	63.7	63.7	63.7	93	61.6	0	0	---	0.00	29.895 
01:35	63.7	63.7	63.7	93	61.6	0	0	---	0.00	29.895 
01:40	63.9	63.9	63.9	93	61.8	0	0	---	0.00	29.895 
01:45	63.9	63.9	63.9	93	61.8	0	0	---	0.00	29.893 
01:50	63.9	63.9	63.9	94	62.1	0	0	---	0.00	29.893 
01:55	63.9	63.9	63.9	94	62.1	0	0	---	0.00	29.893 
02:00	63.9	63.9	63.9	94	62.1	0	0	---	0.00	29.892 
02:05	63.7	63.7	63.7	94	61.9	0	0	---	0.00	29.892 
02:10	63.7	63.7	63.7	94	61.9	0	0	---	0.00	29.892 
02:15	63.5	63.5	63.5	94	61.7	0	0	---	0.00	29.890 
02:20	63.5	63.5	63.5	94	61.7	0	0	---	0.00	29.890 
02:25	63.4	63.4	63.4	94	61.6	0	0	---	0.00	29.890 
02:30	63.4	63.4	63.4	94	61.6	0	0	---	0.00	29.891 
02:35	63.2	63.2	63.2	94	61.4	0	0	---	0.00	29.891 
02:40	63.2	63.2	63.2	94	61.4	0	0	---	0.00	29.891 
02:45	63.1	63.1	63.1	94	61.3	0	0	---	0.00	29.892 
02:50	63.1	63.1	63.1	94	61.3	0	0	---	0.00	29.892 
02:55	62.9	62.9	62.9	94	61.1	0	0	---	0.00	29.892 
03:00	62.7	62.7	62.7	94	60.9	0	0	---	0.00	29.892 
03:05	62.7	62.7	62.7	94	60.9	0	0	---	0.00	29.892 
03:10	62.6	62.6	62.6	94	60.8	0	0	---	0.00	29.892 
03:15	62.6	62.6	62.6	95	61.1	0	0	---	0.00	29.902 
03:20	62.4	62.4	62.4	95	60.9	0	0	---	0.00	29.902 
03:25	62.4	62.4	62.4	95	60.9	0	0	---	0.00	29.902 
03:30	62.3	62.3	62.3	95	60.8	0	0	---	0.00	29.901 
03:35	62.1	62.1	62.1	94	60.3	0	0	---	0.00	29.901 
03:40	62.1	62.1	62.1	95	60.6	0	0	---	0.00	29.901 
03:45	62.0	62.0	62.0	95	60.5	0	0	---	0.00	29.895 
03:50	62.0	62.0	62.0	95	60.5	0	0	---	0.00	29.895 
03:55	62.0	62.0	62.0	95	60.5	0	0	---	0.00	29.895 
04:00	61.8	61.8	61.8	95	60.3	0	0	---	0.00	29.894 
04:05	61.8	61.8	61.8	95	60.3	0	0	---	0.00	29.894 
04:10	61.6	61.6	61.6	95	60.2	0	0	---	0.00	29.894 
04:15	61.6	61.6	61.6	95	60.2	0	0	---	0.00	29.890 
04:20	61.5	61.5	61.5	95	60.1	0	0	---	0.00	29.890 
04:25	61.5	61.5	61.5	95	60.1	0	0	---	0.00	29.890 
04:30	61.5	61.5	61.5	95	60.1	0	0	---	0.00	29.891 
04:35	61.6	61.6	61.6	95	60.2	0	0	---	0.00	29.891 
04:40	61.6	61.6	61.6	95	60.2	0	0	---	0.00	29.891 
04:45	61.5	61.5	61.5	95	60.1	0	0	---	0.00	29.893 
04:50	61.5	61.5	61.5	95	60.1	0	0	---	0.00	29.893 
04:55	61.5	61.5	61.5	95	60.1	0	0	---	0.00	29.893 
05:00	61.5	61.5	61.5	95	60.1	0	0	---	0.00	29.896 
05:05	61.5	61.5	61.5	95	60.1	0	0	---	0.00	29.896 
05:10	61.5	61.5	61.5	96	60.3	0	0	---	0.00	29.896 
05:15	61.3	61.3	61.3	96	60.1	0	0	---	0.00	29.897 
05:20	61.5	61.5	61.5	96	60.3	0	0	---	0.00	29.897 
05:25	61.3	61.3	61.3	96	60.1	0	0	---	0.00	29.897 
05:30	61.3	61.3	61.3	96	60.1	0	0	---	0.00	29.904 
05:35	61.3	61.3	61.3	96	60.1	0	0	---	0.00	29.904 
05:40	61.3	61.3	61.3	96	60.1	0	0	---	0.00	29.904 
05:45	61.3	61.3	61.3	96	60.1	0	0	---	0.00	29.910 
05:50	61.3	61.3	61.3	96	60.1	0	0	---	0.00	29.910 
05:55	61.2	61.2	61.2	96	60.0	0	0	---	0.00	29.910 
06:00	61.2	61.2	61.2	96	60.0	0	0	---	0.00	29.910 
06:05	61.2	61.2	61.2	96	60.0	0	0	---	0.00	29.910 
06:10	61.3	61.3	61.3	96	60.1	0	0	---	0.00	29.910 
06:15	61.3	61.3	61.3	96	60.1	0	0	---	0.00	29.912 
06:20	61.3	61.3	61.3	96	60.1	0	0	---	0.00	29.912 
06:25	61.3	61.3	61.3	96	60.1	0	0	---	0.00	29.912 
06:30	61.3	61.3	61.3	96	60.1	0	0	---	0.00	29.918 
06:35	61.3	61.3	61.3	96	60.1	0	0	---	0.00	29.918 
06:40	61.3	61.3	61.3	96	60.1	0	0	---	0.00	29.918 
06:45	61.3	61.3	61.3	96	60.1	0	0	---	0.00	29.927 
06:50	61.3	61.3	61.3	96	60.1	0	0	---	0.00	29.927 
06:55	61.3	61.3	61.3	96	60.1	0	0	---	0.00	29.927 
07:00	61.5	61.5	61.5	96	60.3	0	0	---	0.00	29.928 
07:05	61.8	61.8	61.8	96	60.6	0	0	---	0.00	29.928 
07:10	62.0	62.0	62.0	96	60.8	0	0	---	0.00	29.928 
07:15	62.0	62.0	62.0	96	60.8	0	0	---	0.00	29.932 
07:20	62.1	62.1	62.1	96	60.9	0	0	---	0.00	29.932 
07:25	62.3	62.3	62.3	96	61.1	0	0	---	0.00	29.932 
07:30	62.4	62.4	62.4	96	61.2	0	0	---	0.00	29.924 
07:35	62.7	62.7	62.7	96	61.5	0	0	---	0.00	29.924 
07:40	63.1	63.1	63.1	96	61.9	0	0	---	0.00	29.924 
07:45	63.5	63.5	63.5	96	62.3	0	0	---	0.00	29.924 
07:50	63.9	63.9	63.9	96	62.7	0	0	---	0.00	29.924 
07:55	64.5	64.5	64.5	97	63.6	0	0	---	0.00	29.924 
08:00	65.0	65.0	65.0	97	64.1	0	1	112	0.00	29.931 
08:05	65.5	65.5	65.5	96	64.3	0	1	112	0.00	29.931 
08:10	66.0	66.0	66.0	96	64.8	0	1	112	0.00	29.931 
08:15	66.4	66.4	66.4	96	65.2	0	0	---	0.00	29.939 
08:20	66.9	66.9	66.9	96	65.7	0	1	112	0.00	29.939 
08:25	67.4	67.4	67.4	95	65.9	0	1	112	0.00	29.939 
08:30	67.9	67.9	67.9	93	65.8	0	1	112	0.00	29.938 
08:35	68.4	68.4	68.4	92	66.0	0	1	112	0.00	29.938 
08:40	69.1	69.1	69.1	91	66.4	0	1	112	0.00	29.938 
08:45	69.4	69.4	69.4	91	66.7	0	0	---	0.00	29.942 
08:50	70.1	70.1	70.1	88	66.4	0	2	112	0.00	29.942 
08:55	70.4	70.4	70.4	86	66.0	0	2	112	0.00	29.942 
09:00	70.8	70.8	70.8	85	66.1	0	2	112	0.00	29.940 
09:05	71.3	71.3	71.3	84	66.2	0	1	112	0.00	29.940 
09:10	72.0	72.0	72.0	84	66.9	0	2	112	0.00	29.940 
09:15	72.3	72.3	72.3	81	66.1	1	3	112	0.00	29.941 
09:20	72.5	72.5	72.5	81	66.3	1	3	112	0.00	29.941 
09:25	72.8	72.8	72.8	81	66.6	0	1	112	0.00	29.941 
09:30	73.2	73.2	73.2	80	66.6	1	3	112	0.00	29.940 
09:35	73.5	73.5	73.5	79	66.6	0	1	112	0.00	29.940 
09:40	73.9	73.9	73.9	78	66.6	0	3	112	0.00	29.940 
09:45	74.4	74.4	74.4	77	66.7	0	2	112	0.00	29.953 
09:50	74.9	74.9	74.9	76	66.8	0	3	112	0.00	29.953 
09:55	75.6	75.6	76.8	76	67.5	0	1	112	0.00	29.953 
10:00	76.1	76.1	77.7	71	66.0	0	0	---	0.00	29.949 
10:05	76.3	76.3	78.0	70	65.8	0	1	112	0.00	29.949 
10:10	76.3	76.3	77.8	73	67.0	0	2	112	0.00	29.949 
10:15	76.8	76.8	78.6	69	65.8	0	3	112	0.00	29.944 
10:20	77.0	77.0	78.8	69	66.0	2	5	112	0.00	29.944 
10:25	76.7	76.7	78.4	69	65.7	2	5	112	0.00	29.944 
10:30	76.7	76.7	78.4	69	65.7	2	3	112	0.00	29.948 
10:35	76.8	76.8	78.6	67	65.0	2	5	112	0.00	29.948 
10:40	77.4	77.4	79.3	70	66.8	0	3	112	0.00	29.948 
10:45	77.7	77.7	79.6	67	65.8	1	4	112	0.00	29.947 
10:50	78.3	78.3	80.4	69	67.3	1	5	112	0.00	29.947 
10:55	78.5	78.5	80.4	64	65.3	1	5	112	0.00	29.947 
11:00	78.6	78.6	80.7	67	66.7	2	4	112	0.00	29.946 
11:05	78.8	78.8	80.7	64	65.6	0	1	112	0.00	29.946 
11:10	79.4	79.4	81.4	63	65.7	0	2	112	0.00	29.946 
11:15	80.1	80.1	82.2	62	65.9	0	1	112	0.00	29.955 
11:20	79.9	79.9	81.9	62	65.7	0	1	112	0.00	29.955 
11:25	80.1	80.1	82.0	61	65.4	0	3	112	0.00	29.955 
11:30	80.7	80.7	82.5	59	65.0	0	2	112	0.00	29.956 
11:35	81.1	81.1	83.0	59	65.4	0	2	112	0.00	29.956 
11:40	81.2	81.2	83.0	58	65.0	1	4	112	0.00	29.956 
11:45	81.4	81.4	83.8	61	66.6	1	4	112	0.00	29.962 
11:50	81.4	81.4	83.6	60	66.2	0	1	112	0.00	29.962 
11:55	81.6	81.6	83.5	58	65.4	1	3	112	0.00	29.962 
12:00	81.8	81.8	83.5	56	64.5	1	3	112	0.00	29.961 
12:05	82.0	82.0	83.7	56	64.7	1	3	112	0.00	29.961 
12:10	82.0	82.0	83.6	55	64.2	1	4	90	0.00	29.961 
12:15	81.4	81.4	83.3	58	65.2	1	3	90	0.00	29.958 
12:20	81.2	81.2	83.0	58	65.0	1	3	90	0.00	29.958 
12:25	81.4	81.4	83.1	57	64.7	1	2	90	0.00	29.958 
12:30	81.8	81.8	83.3	55	64.0	0	1	90	0.00	29.958 
12:35	82.4	82.4	84.2	56	65.1	1	3	90	0.00	29.958 
12:40	82.6	82.6	84.1	54	64.2	1	3	90	0.00	29.958 
12:45	81.6	81.6	82.8	53	62.8	0	2	112	0.00	29.958 
12:50	81.1	81.1	82.8	57	64.4	1	3	270	0.00	29.958 
12:55	81.4	81.4	82.7	54	63.1	1	4	90	0.00	29.958 
13:00	81.8	81.8	83.3	55	64.0	1	4	90	0.00	29.950 
13:05	82.4	82.4	84.6	58	66.1	1	3	112	0.00	29.950 
13:10	82.6	82.6	84.0	53	63.7	1	3	112	0.00	29.950 
13:15	82.8	82.8	84.2	53	63.9	0	2	112	0.00	29.949 
13:20	83.2	83.2	84.7	53	64.3	0	2	112	0.00	29.949 
13:25	83.2	83.2	84.7	53	64.3	1	3	112	0.00	29.949 
13:30	83.0	83.0	85.1	56	65.7	1	5	112	0.00	29.949 
13:35	83.0	83.0	85.1	56	65.7	0	2	112	0.00	29.949 
13:40	83.2	83.2	84.7	53	64.3	1	4	90	0.00	29.949 
13:45	83.2	83.2	84.7	53	64.3	1	5	112	0.00	29.947 
13:50	82.6	82.6	83.6	51	62.6	1	4	112	0.00	29.947 
13:55	81.6	81.6	82.9	54	63.3	1	5	68	0.00	29.947 
14:00	81.1	81.1	82.3	54	62.9	1	3	68	0.00	29.950 
14:05	81.1	81.1	83.2	60	65.9	0	3	68	0.00	29.950 
14:10	81.4	81.4	82.4	52	62.1	1	2	68	0.00	29.950 
14:15	81.8	81.8	82.8	52	62.4	0	2	68	0.00	29.942 
14:20	82.0	82.0	83.4	54	63.7	1	2	68	0.00	29.942 
14:25	82.6	82.6	84.1	54	64.2	1	3	68	0.00	29.942 
14:30	83.0	83.0	84.5	53	64.1	1	6	68	0.00	29.938 
14:35	83.4	83.4	84.8	52	63.9	0	2	338	0.00	29.938 
14:40	83.4	83.4	84.8	52	63.9	1	4	292	0.00	29.938 
14:45	83.2	83.2	84.3	51	63.2	0	2	315	0.00	29.940 
14:50	83.0	83.0	84.5	53	64.1	0	2	338	0.00	29.940 
14:55	82.6	82.6	84.7	57	65.8	1	2	338	0.00	29.940 
15:00	82.6	82.6	83.8	52	63.2	0	1	0	0.00	29.938 
15:05	82.8	82.8	84.2	53	63.9	0	1	0	0.00	29.938 
15:10	83.0	83.0	83.9	50	62.4	0	3	68	0.00	29.938 
15:15	82.8	82.8	84.2	53	63.9	1	2	135	0.00	29.937 
15:20	83.0	83.0	84.3	52	63.5	0	3	135	0.00	29.937 
15:25	83.4	83.4	84.8	52	63.9	1	3	135	0.00	29.937 
15:30	83.6	83.6	84.6	50	63.0	0	3	135	0.00	29.936 
15:35	84.0	84.0	85.1	50	63.3	1	4	135	0.00	29.936 
15:40	84.3	84.3	85.1	48	62.4	1	3	90	0.00	29.936 
15:45	84.3	84.3	84.9	47	61.8	1	3	90	0.00	29.933 
15:50	84.7	84.7	85.6	48	62.8	0	3	90	0.00	29.933 
15:55	84.7	84.7	85.4	47	62.2	1	4	90	0.00	29.933 
16:00	84.5	84.5	86.0	51	64.4	0	1	90	0.00	29.933 
16:05	84.5	84.5	85.1	47	62.0	1	3	90	0.00	29.933 
16:10	84.7	84.7	85.8	49	63.4	0	4	112	0.00	29.933 
16:15	84.5	84.5	85.8	50	63.8	2	5	112	0.00	29.934 
16:20	84.5	84.5	85.6	49	63.2	1	3	90	0.00	29.934 
16:25	84.5	84.5	84.9	46	61.4	1	4	90	0.00	29.934 
16:30	84.1	84.1	84.4	46	61.1	2	5	90	0.00	29.934 
16:35	83.8	83.8	84.5	48	62.0	1	3	90	0.00	29.934 
16:40	84.0	84.0	84.9	49	62.8	0	1	90	0.00	29.934 
16:45	84.0	84.0	84.9	49	62.8	1	3	90	0.00	29.934 
16:50	83.8	83.8	84.9	50	63.1	1	3	90	0.00	29.934 
16:55	84.1	84.1	85.3	50	63.4	0	1	90	0.00	29.934 
17:00	84.7	84.7	85.6	48	62.8	1	3	90	0.00	29.932 
17:05	84.9	84.9	86.1	49	63.6	1	4	90	0.00	29.932 
17:10	84.3	84.3	85.5	50	63.6	2	4	90	0.00	29.932 
17:15	84.1	84.1	85.3	50	63.4	1	3	90	0.00	29.934 
17:20	84.3	84.3	85.5	50	63.6	0	3	90	0.00	29.934 
17:25	84.1	84.1	85.0	49	62.8	1	4	90	0.00	29.934 
17:30	84.1	84.1	85.7	52	64.5	1	3	90	0.00	29.934 
17:35	84.1	84.1	85.3	50	63.4	1	4	90	0.00	29.934 
17:40	84.3	84.3	85.3	49	63.0	1	4	90	0.00	29.934 
17:45	83.8	83.8	85.1	51	63.7	1	5	90	0.00	29.937 
17:50	83.6	83.6	84.8	51	63.5	1	4	90	0.00	29.937 
17:55	83.6	83.6	84.4	49	62.4	1	2	90	0.00	29.937 
18:00	83.6	83.6	84.6	50	63.0	1	3	90	0.00	29.935 
18:05	83.4	83.4	84.4	50	62.8	0	2	90	0.00	29.935 
18:10	83.2	83.2	84.1	50	62.6	0	2	90	0.00	29.935 
18:15	82.8	82.8	83.8	51	62.8	0	1	90	0.00	29.936 
18:20	82.8	82.8	83.8	51	62.8	0	1	90	0.00	29.936 
18:25	82.6	82.6	83.6	51	62.6	0	1	90	0.00	29.936 
18:30	82.4	82.4	83.4	51	62.4	0	1	90	0.00	29.936 
18:35	82.2	82.2	83.1	51	62.2	0	0	---	0.00	29.936 
18:40	82.0	82.0	83.1	52	62.6	0	1	90	0.00	29.936 
18:45	81.8	81.8	83.0	53	63.0	0	1	90	0.00	29.935 
18:50	81.4	81.4	82.4	52	62.1	0	1	90	0.00	29.935 
18:55	81.2	81.2	82.5	54	62.9	0	0	---	0.00	29.935 
19:00	81.2	81.2	82.5	54	62.9	0	0	---	0.00	29.937 
19:05	81.1	81.1	82.2	53	62.3	0	0	---	0.00	29.937 
19:10	81.1	81.1	82.3	54	62.9	0	0	---	0.00	29.937 
19:15	81.1	81.1	82.5	55	63.4	0	0	---	0.00	29.933 
19:20	81.1	81.1	82.8	57	64.4	0	0	---	0.00	29.933 
19:25	80.9	80.9	82.5	57	64.2	0	0	---	0.00	29.933 
19:30	80.7	80.7	82.5	59	65.0	0	0	---	0.00	29.933 
19:35	80.5	80.5	82.2	58	64.3	0	0	---	0.00	29.933 
19:40	80.1	80.1	81.7	58	64.0	0	0	---	0.00	29.933 
19:45	79.9	79.9	81.6	59	64.3	0	0	---	0.00	29.935 
19:50	79.8	79.8	81.5	59	64.2	0	0	---	0.00	29.935 
19:55	79.6	79.6	81.4	61	64.9	0	0	---	0.00	29.935 
20:00	79.4	79.4	81.3	62	65.2	0	0	---	0.00	29.934 
20:05	79.4	79.4	81.3	62	65.2	0	0	---	0.00	29.934 
20:10	79.2	79.2	81.0	61	64.6	0	0	---	0.00	29.934 
20:15	79.0	79.0	80.8	62	64.8	0	0	---	0.00	29.929 
20:20	78.8	78.8	80.7	63	65.1	0	0	---	0.00	29.929 
20:25	78.5	78.5	80.3	63	64.8	0	0	---	0.00	29.929 
20:30	78.3	78.3	80.2	64	65.1	0	0	---	0.00	29.934 
20:35	77.9	77.9	79.7	65	65.2	0	0	---	0.00	29.934 
20:40	77.7	77.7	79.6	66	65.4	0	0	---	0.00	29.934 
20:45	77.4	77.4	79.2	67	65.6	0	0	---	0.00	29.934 
20:50	77.0	77.0	78.8	68	65.6	0	0	---	0.00	29.934 
20:55	76.7	76.7	78.5	68	65.3	0	0	---	0.00	29.934 
21:00	76.5	76.5	78.2	69	65.6	0	0	---	0.00	29.933 
21:05	76.1	76.1	77.8	69	65.2	0	0	---	0.00	29.933 
21:10	75.8	75.8	77.4	70	65.3	0	0	---	0.00	29.933 
21:15	75.4	75.4	77.1	70	64.9	0	0	---	0.00	29.933 
21:20	75.1	75.1	76.7	71	65.0	0	0	---	0.00	29.933 
21:25	74.9	74.9	74.9	72	65.2	0	0	---	0.00	29.933 
21:30	74.6	74.6	74.6	73	65.4	0	0	---	0.00	29.940 
21:35	74.4	74.4	74.4	74	65.6	0	0	---	0.00	29.940 
21:40	74.0	74.0	74.0	75	65.6	0	0	---	0.00	29.940 
21:45	73.7	73.7	73.7	76	65.6	0	0	---	0.00	29.945 
21:50	73.5	73.5	73.5	77	65.8	0	0	---	0.00	29.945 
21:55	73.3	73.3	73.3	77	65.6	0	0	---	0.00	29.945 
22:00	73.2	73.2	73.2	78	65.9	0	0	---	0.00	29.959 
22:05	73.0	73.0	73.0	79	66.1	0	0	---	0.00	29.959 
22:10	72.8	72.8	72.8	79	65.9	0	0	---	0.00	29.959 
22:15	72.7	72.7	72.7	80	66.2	0	0	---	0.00	29.961 
22:20	72.5	72.5	72.5	80	66.0	0	0	---	0.00	29.961 
22:25	72.5	72.5	72.5	81	66.3	0	0	---	0.00	29.961 
22:30	72.3	72.3	72.3	81	66.1	0	0	---	0.00	29.961 
22:35	72.1	72.1	72.1	82	66.3	0	0	---	0.00	29.961 
22:40	72.0	72.0	72.0	82	66.2	0	0	---	0.00	29.961 
22:45	71.8	71.8	71.8	83	66.3	0	0	---	0.00	29.964 
22:50	71.8	71.8	71.8	83	66.3	0	0	---	0.00	29.964 
22:55	71.6	71.6	71.6	84	66.5	0	0	---	0.00	29.964 
23:00	71.5	71.5	71.5	84	66.4	0	0	---	0.00	29.970 
23:05	71.3	71.3	71.3	84	66.2	0	0	---	0.00	29.970 
23:10	71.1	71.1	71.1	84	66.0	0	0	---	0.00	29.970 
23:15	70.9	70.9	70.9	84	65.8	0	0	---	0.00	29.964 
23:20	70.9	70.9	70.9	84	65.8	0	0	---	0.00	29.964 
23:25	70.8	70.8	70.8	84	65.7	0	0	---	0.00	29.964 
23:30	70.6	70.6	70.6	85	65.9	0	0	---	0.00	29.961 
23:35	70.4	70.4	70.4	85	65.7	0	0	---	0.00	29.961 
23:40	70.3	70.3	70.3	86	65.9	0	0	---	0.00	29.961 
23:45	70.1	70.1	70.1	86	65.7	0	0	---	0.00	29.960 
23:50	70.1	70.1	70.1	87	66.0	0	0	---	0.00	29.960 
23:55	69.9	69.9	69.9	87	65.8	0	0	---	0.00	29.960 

CoCoRaHS
IN-AL-39
A2 Web Hosting
Creative Commons License
GoDaddy
search engine by freefind advanced

loaded 2018-11-13 02:18:26 • last modified 2010-11-18 10:43:29
Privacy PolicyDisclaimer
• wx.awcolley.com is powered by PmWiki v.2002016 •
• all content (unless otherwise noted) © 2018 A W Colley